This is the latest recevied weather packets stored in our database for station/object EA2KR-10. If no packets are shown the sender has not sent any weather packets the latest 10 day(s).
| Time | Temp. | Humidity | Pressure | Rain* | Wind** | Luminosity | Snow |
|---|---|---|---|---|---|---|---|
| 1787711599 | 24.44° C | 41% | 1025.7 hPa | - | - | - | - |
| 1787709799 | 25° C | 39% | 1025.8 hPa | - | - | - | - |
| 1787707999 | 25.56° C | 39% | 1026.2 hPa | - | - | - | - |
| 1787706199 | 26.11° C | 39% | 1026 hPa | - | - | - | - |
| 1787704399 | 26.11° C | 38% | 1026.4 hPa | - | - | - | - |
| 1787702599 | 26.67° C | 37% | 1026.2 hPa | - | - | - | - |
| 1787700799 | 27.22° C | 37% | 1026.8 hPa | - | - | - | - |
| 1787698999 | 27.78° C | 36% | 1026.8 hPa | - | - | - | - |
| 1787697199 | 28.89° C | 35% | 1026.8 hPa | - | - | - | - |
| 1787695398 | 30° C | 33% | 1026.8 hPa | - | - | - | - |
| 1787693598 | 30.56° C | 32% | 1026.8 hPa | - | - | - | - |
| 1787691798 | 31.67° C | 30% | 1026.7 hPa | - | - | - | - |
| 1787689998 | 33.33° C | 28% | 1026.5 hPa | - | - | - | - |
| 1787688198 | 35° C | 26% | 1026.3 hPa | - | - | - | - |
| 1787686398 | 36.67° C | 24% | 1025.9 hPa | - | - | - | - |
| 1787684597 | 38.33° C | 22% | 1025.5 hPa | - | - | - | - |
| 1787682849 | 40° C | 21% | 1025.2 hPa | - | - | - | - |
| 1787681049 | 41.11° C | 20% | 1025.5 hPa | - | - | - | - |
| 1787679249 | 41.67° C | 21% | 1025.7 hPa | - | - | - | - |
| 1787677449 | 41.67° C | 21% | 1025.7 hPa | - | - | - | - |
| 1787675649 | 41.11° C | 22% | 1025.8 hPa | - | - | - | - |
| 1787673849 | 40.56° C | 22% | 1025.9 hPa | - | - | - | - |
| 1787672049 | 39.44° C | 23% | 1026 hPa | - | - | - | - |
| 1787670249 | 39.44° C | 24% | 1026 hPa | - | - | - | - |
| 1787668448 | 38.89° C | 25% | 1026.2 hPa | - | - | - | - |
* Rain since midnight (hover to see other rain measurements)
** Current wind speed in m/s (hover to see current wind gust speed)